KFSD

Joe Foss Field Airport

Sioux Falls, South Dakota, USA
METAR KFSD 162356Z 03005KT 10SM FEW140 SCT180 01/M01 A2997 RMK AO2 SLP164 T00111011 10078 20011 53021
Observed Flight Rules
Dec-16 @ 23:56 UTC (26 minutes ago) Visual Flight Rules
Wind Visibility Clouds
30° at 5 knots 10 miles
  • Few at 14,000' AGL
  • Scattered at 18,000' AGL
Temperatures Readings
Current 1°C / 34°F
Dewpoint -1°C / 30°F
Humidity 87%
Altimeter 29.97" Hg
Pressure 1016.4 hPa
Elevation 436
METAR KFSD 162356Z 03005KT 10SM FEW140 SCT180 01/M01 A2997 RMK AO2 SLP164 T00111011 10078 20011 53021
Observed Flight Rules
Dec-16 @ 23:56 UTC
(26 minutes ago)
VFR
Wind Visibility
30° at 5 knots 10 miles
Clouds
  • Few at 14,000' AGL
  • Scattered at 18,000' AGL
Temperature Dewpoint
1°C / 34°F -1°C / 30°F
Humidity Altimeter Pressure
87% 29.97" Hg 1016.4 hPa